sensor_id;sensor_type;location;lat;lon;timestamp;P1;durP1;ratioP1;P2;durP2;ratioP2
22922;SDS011;11627;51.322;22.816;2023-04-29T00:00:36;27.15;;;13.10;;
22922;SDS011;11627;51.322;22.816;2023-04-29T00:03:02;23.55;;;12.77;;
22922;SDS011;11627;51.322;22.816;2023-04-29T00:05:27;29.13;;;13.02;;
22922;SDS011;11627;51.322;22.816;2023-04-29T00:07:53;25.98;;;12.57;;
22922;SDS011;11627;51.322;22.816;2023-04-29T00:10:18;26.65;;;13.20;;
22922;SDS011;11627;51.322;22.816;2023-04-29T00:12:44;24.92;;;12.45;;
22922;SDS011;11627;51.322;22.816;2023-04-29T00:15:10;26.55;;;13.02;;
22922;SDS011;11627;51.322;22.816;2023-04-29T00:17:36;26.45;;;12.60;;
22922;SDS011;11627;51.322;22.816;2023-04-29T00:20:02;24.08;;;11.98;;
22922;SDS011;11627;51.322;22.816;2023-04-29T00:22:28;23.30;;;11.85;;
22922;SDS011;11627;51.322;22.816;2023-04-29T00:24:54;23.15;;;12.43;;
22922;SDS011;11627;51.322;22.816;2023-04-29T00:27:19;21.52;;;12.30;;
22922;SDS011;11627;51.322;22.816;2023-04-29T00:29:45;26.35;;;11.55;;
22922;SDS011;11627;51.322;22.816;2023-04-29T00:32:11;26.15;;;12.52;;
22922;SDS011;11627;51.322;22.816;2023-04-29T00:34:36;23.60;;;11.38;;
22922;SDS011;11627;51.322;22.816;2023-04-29T00:37:02;25.25;;;12.32;;
22922;SDS011;11627;51.322;22.816;2023-04-29T00:39:28;25.58;;;12.27;;
22922;SDS011;11627;51.322;22.816;2023-04-29T00:41:54;24.48;;;12.38;;
22922;SDS011;11627;51.322;22.816;2023-04-29T00:44:20;24.25;;;12.30;;
22922;SDS011;11627;51.322;22.816;2023-04-29T00:46:46;26.33;;;11.85;;
22922;SDS011;11627;51.322;22.816;2023-04-29T00:49:11;21.05;;;11.13;;
22922;SDS011;11627;51.322;22.816;2023-04-29T00:51:38;27.55;;;11.23;;
22922;SDS011;11627;51.322;22.816;2023-04-29T00:54:05;20.02;;;11.35;;
22922;SDS011;11627;51.322;22.816;2023-04-29T00:56:33;23.80;;;11.38;;
22922;SDS011;11627;51.322;22.816;2023-04-29T00:59:00;22.63;;;11.25;;
22922;SDS011;11627;51.322;22.816;2023-04-29T01:01:27;22.55;;;10.90;;
22922;SDS011;11627;51.322;22.816;2023-04-29T01:03:55;23.40;;;10.70;;
22922;SDS011;11627;51.322;22.816;2023-04-29T01:06:34;21.67;;;10.30;;
22922;SDS011;11627;51.322;22.816;2023-04-29T01:15:04;18.10;;;9.90;;
22922;SDS011;11627;51.322;22.816;2023-04-29T01:17:39;24.15;;;10.32;;
22922;SDS011;11627;51.322;22.816;2023-04-29T01:20:08;21.23;;;10.50;;
22922;SDS011;11627;51.322;22.816;2023-04-29T01:22:35;20.65;;;9.43;;
22922;SDS011;11627;51.322;22.816;2023-04-29T01:25:01;19.42;;;9.63;;
22922;SDS011;11627;51.322;22.816;2023-04-29T01:27:32;17.10;;;9.55;;
22922;SDS011;11627;51.322;22.816;2023-04-29T01:30:00;18.35;;;10.40;;
22922;SDS011;11627;51.322;22.816;2023-04-29T01:32:48;19.02;;;10.85;;
22922;SDS011;11627;51.322;22.816;2023-04-29T01:41:18;16.27;;;9.35;;
22922;SDS011;11627;51.322;22.816;2023-04-29T01:43:55;18.15;;;9.98;;
22922;SDS011;11627;51.322;22.816;2023-04-29T01:46:22;18.55;;;9.88;;
22922;SDS011;11627;51.322;22.816;2023-04-29T01:48:48;16.63;;;9.18;;
22922;SDS011;11627;51.322;22.816;2023-04-29T01:51:16;17.95;;;10.15;;
22922;SDS011;11627;51.322;22.816;2023-04-29T01:53:42;19.30;;;8.73;;
22922;SDS011;11627;51.322;22.816;2023-04-29T01:56:08;19.40;;;8.93;;
22922;SDS011;11627;51.322;22.816;2023-04-29T01:58:34;19.17;;;8.90;;
22922;SDS011;11627;51.322;22.816;2023-04-29T02:00:59;17.52;;;9.23;;
22922;SDS011;11627;51.322;22.816;2023-04-29T02:03:25;17.65;;;9.05;;
22922;SDS011;11627;51.322;22.816;2023-04-29T02:05:51;14.75;;;8.02;;
22922;SDS011;11627;51.322;22.816;2023-04-29T02:08:17;15.90;;;8.23;;
22922;SDS011;11627;51.322;22.816;2023-04-29T02:10:55;18.80;;;8.50;;
22922;SDS011;11627;51.322;22.816;2023-04-29T02:13:22;18.23;;;8.93;;
22922;SDS011;11627;51.322;22.816;2023-04-29T02:15:48;18.33;;;8.70;;
22922;SDS011;11627;51.322;22.816;2023-04-29T02:18:14;14.63;;;7.90;;
22922;SDS011;11627;51.322;22.816;2023-04-29T02:20:40;14.85;;;7.68;;
22922;SDS011;11627;51.322;22.816;2023-04-29T02:23:06;16.42;;;7.50;;
22922;SDS011;11627;51.322;22.816;2023-04-29T02:25:31;16.50;;;8.00;;
22922;SDS011;11627;51.322;22.816;2023-04-29T02:27:57;15.43;;;7.65;;
22922;SDS011;11627;51.322;22.816;2023-04-29T02:30:23;14.13;;;7.35;;
22922;SDS011;11627;51.322;22.816;2023-04-29T02:32:49;20.85;;;7.85;;
22922;SDS011;11627;51.322;22.816;2023-04-29T02:35:15;19.63;;;7.72;;
22922;SDS011;11627;51.322;22.816;2023-04-29T02:37:41;11.55;;;6.93;;
22922;SDS011;11627;51.322;22.816;2023-04-29T02:40:06;16.60;;;8.10;;
22922;SDS011;11627;51.322;22.816;2023-04-29T02:42:32;16.77;;;6.90;;
22922;SDS011;11627;51.322;22.816;2023-04-29T02:44:58;13.68;;;6.75;;
22922;SDS011;11627;51.322;22.816;2023-04-29T02:47:25;14.80;;;7.50;;
22922;SDS011;11627;51.322;22.816;2023-04-29T02:49:50;16.05;;;7.22;;
22922;SDS011;11627;51.322;22.816;2023-04-29T02:52:16;11.85;;;7.05;;
22922;SDS011;11627;51.322;22.816;2023-04-29T02:54:43;14.60;;;7.07;;
22922;SDS011;11627;51.322;22.816;2023-04-29T02:57:08;16.10;;;7.72;;
22922;SDS011;11627;51.322;22.816;2023-04-29T02:59:35;13.88;;;6.90;;
22922;SDS011;11627;51.322;22.816;2023-04-29T03:02:01;13.95;;;7.70;;
22922;SDS011;11627;51.322;22.816;2023-04-29T03:04:26;15.05;;;7.43;;
22922;SDS011;11627;51.322;22.816;2023-04-29T03:06:56;15.75;;;7.00;;
22922;SDS011;11627;51.322;22.816;2023-04-29T03:09:22;15.77;;;7.10;;
22922;SDS011;11627;51.322;22.816;2023-04-29T03:11:48;12.32;;;7.20;;
22922;SDS011;11627;51.322;22.816;2023-04-29T03:14:14;16.08;;;7.68;;
22922;SDS011;11627;51.322;22.816;2023-04-29T03:16:40;12.38;;;6.95;;
22922;SDS011;11627;51.322;22.816;2023-04-29T03:19:06;13.82;;;7.40;;
22922;SDS011;11627;51.322;22.816;2023-04-29T03:21:32;13.70;;;6.80;;
22922;SDS011;11627;51.322;22.816;2023-04-29T03:23:58;12.38;;;6.97;;
22922;SDS011;11627;51.322;22.816;2023-04-29T03:26:23;14.88;;;7.10;;
22922;SDS011;11627;51.322;22.816;2023-04-29T03:28:50;13.38;;;6.97;;
22922;SDS011;11627;51.322;22.816;2023-04-29T03:31:16;13.18;;;7.43;;
22922;SDS011;11627;51.322;22.816;2023-04-29T03:33:41;16.05;;;6.75;;
22922;SDS011;11627;51.322;22.816;2023-04-29T03:36:07;10.93;;;7.13;;
22922;SDS011;11627;51.322;22.816;2023-04-29T03:38:35;13.20;;;6.97;;
22922;SDS011;11627;51.322;22.816;2023-04-29T03:41:00;14.02;;;6.93;;
22922;SDS011;11627;51.322;22.816;2023-04-29T03:43:27;12.02;;;7.15;;
22922;SDS011;11627;51.322;22.816;2023-04-29T03:45:52;12.90;;;7.13;;
22922;SDS011;11627;51.322;22.816;2023-04-29T03:48:18;14.30;;;6.95;;
22922;SDS011;11627;51.322;22.816;2023-04-29T03:50:45;15.25;;;7.30;;
22922;SDS011;11627;51.322;22.816;2023-04-29T03:53:12;13.38;;;7.03;;
22922;SDS011;11627;51.322;22.816;2023-04-29T03:55:38;12.13;;;6.63;;
22922;SDS011;11627;51.322;22.816;2023-04-29T03:58:04;12.07;;;6.70;;
22922;SDS011;11627;51.322;22.816;2023-04-29T04:00:30;14.27;;;6.88;;
22922;SDS011;11627;51.322;22.816;2023-04-29T04:02:56;15.77;;;7.30;;
22922;SDS011;11627;51.322;22.816;2023-04-29T04:05:22;13.80;;;6.40;;
22922;SDS011;11627;51.322;22.816;2023-04-29T04:07:52;12.27;;;6.80;;
22922;SDS011;11627;51.322;22.816;2023-04-29T04:10:18;11.63;;;6.38;;
22922;SDS011;11627;51.322;22.816;2023-04-29T04:12:44;12.13;;;6.90;;
22922;SDS011;11627;51.322;22.816;2023-04-29T04:15:11;9.43;;;6.22;;
22922;SDS011;11627;51.322;22.816;2023-04-29T04:17:37;9.43;;;6.28;;
22922;SDS011;11627;51.322;22.816;2023-04-29T04:20:03;12.43;;;6.30;;
22922;SDS011;11627;51.322;22.816;2023-04-29T04:22:29;10.48;;;6.45;;
22922;SDS011;11627;51.322;22.816;2023-04-29T04:24:55;10.50;;;6.63;;
22922;SDS011;11627;51.322;22.816;2023-04-29T04:27:21;13.20;;;7.00;;
22922;SDS011;11627;51.322;22.816;2023-04-29T04:29:47;9.00;;;6.00;;
22922;SDS011;11627;51.322;22.816;2023-04-29T04:32:13;12.77;;;6.40;;
22922;SDS011;11627;51.322;22.816;2023-04-29T04:34:38;11.95;;;6.57;;
22922;SDS011;11627;51.322;22.816;2023-04-29T04:37:04;9.13;;;5.90;;
22922;SDS011;11627;51.322;22.816;2023-04-29T04:39:30;11.40;;;6.20;;
22922;SDS011;11627;51.322;22.816;2023-04-29T04:41:56;8.88;;;5.90;;
22922;SDS011;11627;51.322;22.816;2023-04-29T04:44:22;11.00;;;6.25;;
22922;SDS011;11627;51.322;22.816;2023-04-29T04:46:49;14.30;;;6.65;;
22922;SDS011;11627;51.322;22.816;2023-04-29T04:49:16;10.13;;;6.13;;
22922;SDS011;11627;51.322;22.816;2023-04-29T04:51:44;13.15;;;6.43;;
22922;SDS011;11627;51.322;22.816;2023-04-29T04:54:11;11.25;;;6.38;;
22922;SDS011;11627;51.322;22.816;2023-04-29T04:56:37;11.13;;;6.55;;
22922;SDS011;11627;51.322;22.816;2023-04-29T04:59:03;9.98;;;6.03;;
22922;SDS011;11627;51.322;22.816;2023-04-29T05:01:29;9.45;;;5.93;;
22922;SDS011;11627;51.322;22.816;2023-04-29T05:03:54;10.35;;;7.10;;
22922;SDS011;11627;51.322;22.816;2023-04-29T05:06:21;11.57;;;6.00;;
22922;SDS011;11627;51.322;22.816;2023-04-29T05:08:47;10.73;;;6.05;;
22922;SDS011;11627;51.322;22.816;2023-04-29T05:11:16;11.23;;;6.40;;
22922;SDS011;11627;51.322;22.816;2023-04-29T05:13:42;11.02;;;6.22;;
22922;SDS011;11627;51.322;22.816;2023-04-29T05:16:08;12.98;;;6.72;;
22922;SDS011;11627;51.322;22.816;2023-04-29T05:18:34;10.82;;;6.20;;
22922;SDS011;11627;51.322;22.816;2023-04-29T05:21:00;9.68;;;6.55;;
22922;SDS011;11627;51.322;22.816;2023-04-29T05:23:25;12.10;;;6.68;;
22922;SDS011;11627;51.322;22.816;2023-04-29T05:25:51;12.82;;;6.63;;
22922;SDS011;11627;51.322;22.816;2023-04-29T05:28:17;11.88;;;6.53;;
22922;SDS011;11627;51.322;22.816;2023-04-29T05:30:43;11.25;;;6.45;;
22922;SDS011;11627;51.322;22.816;2023-04-29T05:33:09;13.32;;;6.90;;
22922;SDS011;11627;51.322;22.816;2023-04-29T05:35:35;11.18;;;6.65;;
22922;SDS011;11627;51.322;22.816;2023-04-29T05:38:02;11.00;;;6.25;;
22922;SDS011;11627;51.322;22.816;2023-04-29T05:40:28;10.77;;;6.40;;
22922;SDS011;11627;51.322;22.816;2023-04-29T05:42:53;12.02;;;6.95;;
22922;SDS011;11627;51.322;22.816;2023-04-29T05:45:19;8.98;;;6.25;;
22922;SDS011;11627;51.322;22.816;2023-04-29T05:47:45;12.90;;;6.35;;
22922;SDS011;11627;51.322;22.816;2023-04-29T05:50:10;10.63;;;6.57;;
22922;SDS011;11627;51.322;22.816;2023-04-29T05:52:37;11.38;;;6.47;;
22922;SDS011;11627;51.322;22.816;2023-04-29T05:55:03;11.57;;;6.40;;
22922;SDS011;11627;51.322;22.816;2023-04-29T05:57:29;9.23;;;6.47;;
22922;SDS011;11627;51.322;22.816;2023-04-29T05:59:55;9.55;;;6.45;;
22922;SDS011;11627;51.322;22.816;2023-04-29T06:02:21;13.40;;;6.40;;
22922;SDS011;11627;51.322;22.816;2023-04-29T06:04:47;10.30;;;7.00;;
22922;SDS011;11627;51.322;22.816;2023-04-29T06:07:13;12.70;;;6.70;;
22922;SDS011;11627;51.322;22.816;2023-04-29T06:09:39;10.57;;;6.70;;
22922;SDS011;11627;51.322;22.816;2023-04-29T06:12:05;12.85;;;7.72;;
22922;SDS011;11627;51.322;22.816;2023-04-29T06:14:31;13.07;;;7.20;;
22922;SDS011;11627;51.322;22.816;2023-04-29T06:16:56;10.43;;;7.47;;
22922;SDS011;11627;51.322;22.816;2023-04-29T06:19:22;17.10;;;8.32;;
22922;SDS011;11627;51.322;22.816;2023-04-29T06:21:49;14.20;;;7.80;;
22922;SDS011;11627;51.322;22.816;2023-04-29T06:24:15;12.88;;;8.15;;
22922;SDS011;11627;51.322;22.816;2023-04-29T06:26:41;13.25;;;7.03;;
22922;SDS011;11627;51.322;22.816;2023-04-29T06:29:06;10.68;;;6.68;;
22922;SDS011;11627;51.322;22.816;2023-04-29T06:31:32;16.33;;;7.03;;
22922;SDS011;11627;51.322;22.816;2023-04-29T06:33:58;11.48;;;6.55;;
22922;SDS011;11627;51.322;22.816;2023-04-29T06:36:24;11.43;;;6.63;;
22922;SDS011;11627;51.322;22.816;2023-04-29T06:38:51;11.10;;;6.88;;
22922;SDS011;11627;51.322;22.816;2023-04-29T06:41:17;10.38;;;6.22;;
22922;SDS011;11627;51.322;22.816;2023-04-29T06:43:43;11.50;;;6.57;;
22922;SDS011;11627;51.322;22.816;2023-04-29T06:46:08;14.25;;;6.80;;
22922;SDS011;11627;51.322;22.816;2023-04-29T06:48:34;8.82;;;6.28;;
22922;SDS011;11627;51.322;22.816;2023-04-29T06:51:00;15.18;;;7.07;;
22922;SDS011;11627;51.322;22.816;2023-04-29T06:53:26;11.95;;;7.07;;
22922;SDS011;11627;51.322;22.816;2023-04-29T06:55:52;10.93;;;6.85;;
22922;SDS011;11627;51.322;22.816;2023-04-29T06:58:18;10.48;;;6.80;;
22922;SDS011;11627;51.322;22.816;2023-04-29T07:00:44;11.00;;;6.82;;
22922;SDS011;11627;51.322;22.816;2023-04-29T07:03:11;9.38;;;6.45;;
22922;SDS011;11627;51.322;22.816;2023-04-29T07:05:38;11.55;;;6.75;;
22922;SDS011;11627;51.322;22.816;2023-04-29T07:08:06;9.68;;;6.63;;
22922;SDS011;11627;51.322;22.816;2023-04-29T07:10:34;10.18;;;6.88;;
22922;SDS011;11627;51.322;22.816;2023-04-29T07:12:59;14.15;;;7.35;;
22922;SDS011;11627;51.322;22.816;2023-04-29T07:15:25;10.07;;;6.32;;
22922;SDS011;11627;51.322;22.816;2023-04-29T07:17:52;15.13;;;6.47;;
22922;SDS011;11627;51.322;22.816;2023-04-29T07:20:18;11.25;;;6.18;;
22922;SDS011;11627;51.322;22.816;2023-04-29T07:22:44;9.48;;;5.60;;
22922;SDS011;11627;51.322;22.816;2023-04-29T07:25:10;13.50;;;5.78;;
22922;SDS011;11627;51.322;22.816;2023-04-29T07:27:36;10.88;;;5.93;;
22922;SDS011;11627;51.322;22.816;2023-04-29T07:30:02;10.02;;;5.68;;
22922;SDS011;11627;51.322;22.816;2023-04-29T07:32:28;7.85;;;5.55;;
22922;SDS011;11627;51.322;22.816;2023-04-29T07:34:57;10.70;;;5.88;;
22922;SDS011;11627;51.322;22.816;2023-04-29T07:37:23;8.23;;;5.28;;
22922;SDS011;11627;51.322;22.816;2023-04-29T07:39:49;10.05;;;5.50;;
22922;SDS011;11627;51.322;22.816;2023-04-29T07:42:15;9.65;;;5.60;;
22922;SDS011;11627;51.322;22.816;2023-04-29T07:44:42;8.50;;;5.07;;
22922;SDS011;11627;51.322;22.816;2023-04-29T07:47:09;6.32;;;4.57;;
22922;SDS011;11627;51.322;22.816;2023-04-29T07:49:36;12.35;;;4.75;;
22922;SDS011;11627;51.322;22.816;2023-04-29T07:52:05;6.90;;;5.00;;
22922;SDS011;11627;51.322;22.816;2023-04-29T07:54:33;6.28;;;4.72;;
22922;SDS011;11627;51.322;22.816;2023-04-29T07:57:00;8.32;;;5.35;;
22922;SDS011;11627;51.322;22.816;2023-04-29T07:59:27;12.02;;;5.50;;
22922;SDS011;11627;51.322;22.816;2023-04-29T08:01:53;7.88;;;4.43;;
22922;SDS011;11627;51.322;22.816;2023-04-29T08:04:19;6.95;;;4.57;;
22922;SDS011;11627;51.322;22.816;2023-04-29T08:06:46;10.75;;;4.72;;
22922;SDS011;11627;51.322;22.816;2023-04-29T08:09:12;9.23;;;4.78;;
22922;SDS011;11627;51.322;22.816;2023-04-29T08:11:38;7.43;;;4.93;;
22922;SDS011;11627;51.322;22.816;2023-04-29T08:14:04;7.00;;;4.40;;
22922;SDS011;11627;51.322;22.816;2023-04-29T08:16:30;7.75;;;4.72;;
22922;SDS011;11627;51.322;22.816;2023-04-29T08:18:56;10.25;;;4.68;;
22922;SDS011;11627;51.322;22.816;2023-04-29T08:21:22;9.93;;;5.60;;
22922;SDS011;11627;51.322;22.816;2023-04-29T08:23:47;15.25;;;6.55;;
22922;SDS011;11627;51.322;22.816;2023-04-29T08:26:14;10.88;;;5.55;;
22922;SDS011;11627;51.322;22.816;2023-04-29T08:28:40;6.95;;;4.43;;
22922;SDS011;11627;51.322;22.816;2023-04-29T08:31:06;9.07;;;4.63;;
22922;SDS011;11627;51.322;22.816;2023-04-29T08:33:32;7.25;;;3.92;;
22922;SDS011;11627;51.322;22.816;2023-04-29T08:35:59;9.20;;;4.60;;
22922;SDS011;11627;51.322;22.816;2023-04-29T08:38:27;8.52;;;4.95;;
22922;SDS011;11627;51.322;22.816;2023-04-29T08:40:53;10.38;;;5.18;;
22922;SDS011;11627;51.322;22.816;2023-04-29T08:43:20;10.13;;;4.30;;
22922;SDS011;11627;51.322;22.816;2023-04-29T08:45:50;8.95;;;4.72;;
22922;SDS011;11627;51.322;22.816;2023-04-29T08:48:16;7.78;;;4.20;;
22922;SDS011;11627;51.322;22.816;2023-04-29T08:50:42;8.80;;;4.50;;
22922;SDS011;11627;51.322;22.816;2023-04-29T08:53:09;9.05;;;4.72;;
22922;SDS011;11627;51.322;22.816;2023-04-29T08:55:40;9.38;;;4.32;;
22922;SDS011;11627;51.322;22.816;2023-04-29T08:58:11;8.23;;;4.10;;
22922;SDS011;11627;51.322;22.816;2023-04-29T09:00:37;8.45;;;4.05;;
22922;SDS011;11627;51.322;22.816;2023-04-29T09:05:42;8.07;;;4.20;;
22922;SDS011;11627;51.322;22.816;2023-04-29T09:08:10;8.95;;;4.35;;
22922;SDS011;11627;51.322;22.816;2023-04-29T09:10:37;7.88;;;4.38;;
22922;SDS011;11627;51.322;22.816;2023-04-29T09:13:06;7.20;;;4.30;;
22922;SDS011;11627;51.322;22.816;2023-04-29T09:15:37;8.38;;;4.20;;
22922;SDS011;11627;51.322;22.816;2023-04-29T09:18:05;8.73;;;4.50;;
22922;SDS011;11627;51.322;22.816;2023-04-29T09:20:31;8.48;;;4.10;;
22922;SDS011;11627;51.322;22.816;2023-04-29T09:22:58;6.85;;;4.00;;
22922;SDS011;11627;51.322;22.816;2023-04-29T09:25:25;10.48;;;4.53;;
22922;SDS011;11627;51.322;22.816;2023-04-29T09:27:52;8.00;;;4.15;;
22922;SDS011;11627;51.322;22.816;2023-04-29T09:30:18;10.90;;;4.10;;
22922;SDS011;11627;51.322;22.816;2023-04-29T09:32:45;10.52;;;4.05;;
22922;SDS011;11627;51.322;22.816;2023-04-29T09:35:27;6.63;;;3.72;;
22922;SDS011;11627;51.322;22.816;2023-04-29T09:37:54;9.57;;;4.10;;
22922;SDS011;11627;51.322;22.816;2023-04-29T09:40:37;8.52;;;4.57;;
22922;SDS011;11627;51.322;22.816;2023-04-29T09:43:04;13.05;;;4.13;;
22922;SDS011;11627;51.322;22.816;2023-04-29T09:45:40;11.57;;;4.05;;
22922;SDS011;11627;51.322;22.816;2023-04-29T09:48:07;12.65;;;3.88;;
22922;SDS011;11627;51.322;22.816;2023-04-29T09:50:34;16.58;;;4.13;;
22922;SDS011;11627;51.322;22.816;2023-04-29T09:53:01;11.88;;;4.22;;
22922;SDS011;11627;51.322;22.816;2023-04-29T09:55:27;10.25;;;3.95;;
22922;SDS011;11627;51.322;22.816;2023-04-29T09:57:53;12.30;;;4.80;;
22922;SDS011;11627;51.322;22.816;2023-04-29T10:00:20;8.27;;;3.92;;
22922;SDS011;11627;51.322;22.816;2023-04-29T10:02:46;13.07;;;4.10;;
22922;SDS011;11627;51.322;22.816;2023-04-29T10:05:14;7.90;;;3.85;;
22922;SDS011;11627;51.322;22.816;2023-04-29T10:07:40;11.38;;;4.72;;
22922;SDS011;11627;51.322;22.816;2023-04-29T10:10:06;8.10;;;4.40;;
22922;SDS011;11627;51.322;22.816;2023-04-29T10:12:34;11.35;;;4.18;;
22922;SDS011;11627;51.322;22.816;2023-04-29T10:15:03;8.68;;;4.18;;
22922;SDS011;11627;51.322;22.816;2023-04-29T10:17:54;12.40;;;4.00;;
22922;SDS011;11627;51.322;22.816;2023-04-29T10:20:27;7.05;;;4.55;;
22922;SDS011;11627;51.322;22.816;2023-04-29T10:22:54;7.63;;;4.22;;
22922;SDS011;11627;51.322;22.816;2023-04-29T10:25:21;13.45;;;4.32;;
22922;SDS011;11627;51.322;22.816;2023-04-29T10:27:49;13.90;;;4.15;;
22922;SDS011;11627;51.322;22.816;2023-04-29T10:30:19;11.23;;;4.13;;
22922;SDS011;11627;51.322;22.816;2023-04-29T10:32:46;10.73;;;4.70;;
22922;SDS011;11627;51.322;22.816;2023-04-29T10:35:13;6.18;;;3.97;;
22922;SDS011;11627;51.322;22.816;2023-04-29T10:37:40;6.97;;;3.78;;
22922;SDS011;11627;51.322;22.816;2023-04-29T10:50:27;9.48;;;4.22;;
22922;SDS011;11627;51.322;22.816;2023-04-29T10:52:54;6.93;;;3.97;;
22922;SDS011;11627;51.322;22.816;2023-04-29T10:55:21;8.70;;;4.20;;
22922;SDS011;11627;51.322;22.816;2023-04-29T10:57:48;8.45;;;4.32;;
22922;SDS011;11627;51.322;22.816;2023-04-29T11:00:27;5.78;;;3.47;;
22922;SDS011;11627;51.322;22.816;2023-04-29T11:03:04;10.80;;;4.47;;
22922;SDS011;11627;51.322;22.816;2023-04-29T11:05:31;6.57;;;3.78;;
22922;SDS011;11627;51.322;22.816;2023-04-29T11:08:13;8.43;;;4.30;;
22922;SDS011;11627;51.322;22.816;2023-04-29T11:10:51;7.70;;;3.80;;
22922;SDS011;11627;51.322;22.816;2023-04-29T11:13:21;7.28;;;3.80;;
22922;SDS011;11627;51.322;22.816;2023-04-29T11:15:51;5.78;;;3.70;;
22922;SDS011;11627;51.322;22.816;2023-04-29T11:18:18;8.13;;;4.00;;
22922;SDS011;11627;51.322;22.816;2023-04-29T11:23:28;6.03;;;3.65;;
22922;SDS011;11627;51.322;22.816;2023-04-29T11:25:54;12.18;;;4.07;;
22922;SDS011;11627;51.322;22.816;2023-04-29T11:28:21;8.80;;;3.85;;
22922;SDS011;11627;51.322;22.816;2023-04-29T11:30:51;6.18;;;3.40;;
22922;SDS011;11627;51.322;22.816;2023-04-29T11:33:21;7.82;;;3.60;;
22922;SDS011;11627;51.322;22.816;2023-04-29T11:35:51;8.88;;;3.30;;
22922;SDS011;11627;51.322;22.816;2023-04-29T11:38:22;6.78;;;3.42;;
22922;SDS011;11627;51.322;22.816;2023-04-29T11:40:50;6.80;;;3.28;;
22922;SDS011;11627;51.322;22.816;2023-04-29T11:43:16;3.88;;;3.28;;
22922;SDS011;11627;51.322;22.816;2023-04-29T11:45:45;7.45;;;3.40;;
22922;SDS011;11627;51.322;22.816;2023-04-29T11:48:21;5.50;;;3.15;;
22922;SDS011;11627;51.322;22.816;2023-04-29T11:50:51;4.47;;;3.00;;
22922;SDS011;11627;51.322;22.816;2023-04-29T11:53:23;7.75;;;3.28;;
22922;SDS011;11627;51.322;22.816;2023-04-29T11:55:53;7.55;;;4.40;;
22922;SDS011;11627;51.322;22.816;2023-04-29T11:58:19;5.75;;;3.45;;
22922;SDS011;11627;51.322;22.816;2023-04-29T12:00:49;6.32;;;3.17;;
22922;SDS011;11627;51.322;22.816;2023-04-29T12:03:16;7.10;;;3.42;;
22922;SDS011;11627;51.322;22.816;2023-04-29T12:05:46;5.25;;;3.00;;
22922;SDS011;11627;51.322;22.816;2023-04-29T12:08:22;5.45;;;3.00;;
22922;SDS011;11627;51.322;22.816;2023-04-29T12:10:49;7.70;;;3.40;;
22922;SDS011;11627;51.322;22.816;2023-04-29T12:13:16;15.55;;;4.80;;
22922;SDS011;11627;51.322;22.816;2023-04-29T12:15:47;7.50;;;3.88;;
22922;SDS011;11627;51.322;22.816;2023-04-29T12:18:15;6.38;;;3.40;;
22922;SDS011;11627;51.322;22.816;2023-04-29T12:20:42;4.93;;;3.15;;
22922;SDS011;11627;51.322;22.816;2023-04-29T12:25:48;5.30;;;3.35;;
22922;SDS011;11627;51.322;22.816;2023-04-29T12:28:16;10.77;;;4.20;;
22922;SDS011;11627;51.322;22.816;2023-04-29T12:30:43;8.45;;;3.97;;
22922;SDS011;11627;51.322;22.816;2023-04-29T12:35:51;5.40;;;3.25;;
22922;SDS011;11627;51.322;22.816;2023-04-29T12:38:24;12.10;;;3.60;;
22922;SDS011;11627;51.322;22.816;2023-04-29T12:40:59;5.78;;;3.78;;
22922;SDS011;11627;51.322;22.816;2023-04-29T12:43:28;5.35;;;3.35;;
22922;SDS011;11627;51.322;22.816;2023-04-29T12:46:01;6.03;;;3.45;;
22922;SDS011;11627;51.322;22.816;2023-04-29T12:48:29;13.77;;;4.72;;
22922;SDS011;11627;51.322;22.816;2023-04-29T12:50:56;24.30;;;4.35;;
22922;SDS011;11627;51.322;22.816;2023-04-29T12:53:23;27.55;;;4.07;;
22922;SDS011;11627;51.322;22.816;2023-04-29T12:55:50;20.40;;;4.03;;
22922;SDS011;11627;51.322;22.816;2023-04-29T12:58:16;8.50;;;3.70;;
22922;SDS011;11627;51.322;22.816;2023-04-29T13:00:42;7.55;;;3.95;;
22922;SDS011;11627;51.322;22.816;2023-04-29T13:03:07;8.85;;;3.60;;
22922;SDS011;11627;51.322;22.816;2023-04-29T13:05:33;8.70;;;3.47;;
22922;SDS011;11627;51.322;22.816;2023-04-29T13:07:59;4.70;;;3.40;;
22922;SDS011;11627;51.322;22.816;2023-04-29T13:10:25;7.25;;;3.28;;
22922;SDS011;11627;51.322;22.816;2023-04-29T13:12:52;19.60;;;7.60;;
22922;SDS011;11627;51.322;22.816;2023-04-29T13:15:18;9.73;;;5.82;;
22922;SDS011;11627;51.322;22.816;2023-04-29T13:17:45;36.15;;;17.65;;
22922;SDS011;11627;51.322;22.816;2023-04-29T13:20:11;163.40;;;72.10;;
22922;SDS011;11627;51.322;22.816;2023-04-29T13:22:37;194.35;;;95.78;;
22922;SDS011;11627;51.322;22.816;2023-04-29T13:25:03;50.22;;;20.48;;
22922;SDS011;11627;51.322;22.816;2023-04-29T13:27:29;31.50;;;16.05;;
22922;SDS011;11627;51.322;22.816;2023-04-29T13:29:55;23.65;;;12.10;;
22922;SDS011;11627;51.322;22.816;2023-04-29T13:32:22;62.10;;;33.78;;
22922;SDS011;11627;51.322;22.816;2023-04-29T13:34:49;28.80;;;13.25;;
22922;SDS011;11627;51.322;22.816;2023-04-29T13:37:15;49.00;;;12.82;;
22922;SDS011;11627;51.322;22.816;2023-04-29T13:39:41;43.95;;;10.02;;
22922;SDS011;11627;51.322;22.816;2023-04-29T13:42:07;26.10;;;7.90;;
22922;SDS011;11627;51.322;22.816;2023-04-29T13:44:32;31.73;;;8.85;;
22922;SDS011;11627;51.322;22.816;2023-04-29T13:46:59;8.90;;;5.47;;
22922;SDS011;11627;51.322;22.816;2023-04-29T13:49:25;18.10;;;10.88;;
22922;SDS011;11627;51.322;22.816;2023-04-29T13:51:51;25.45;;;13.02;;
22922;SDS011;11627;51.322;22.816;2023-04-29T13:54:17;24.30;;;8.98;;
22922;SDS011;11627;51.322;22.816;2023-04-29T13:56:45;13.15;;;7.47;;
22922;SDS011;11627;51.322;22.816;2023-04-29T13:59:11;36.00;;;21.13;;
22922;SDS011;11627;51.322;22.816;2023-04-29T14:01:37;68.22;;;35.00;;
22922;SDS011;11627;51.322;22.816;2023-04-29T14:04:03;24.60;;;12.80;;
22922;SDS011;11627;51.322;22.816;2023-04-29T14:06:29;21.45;;;11.95;;
22922;SDS011;11627;51.322;22.816;2023-04-29T14:08:56;21.92;;;12.80;;
22922;SDS011;11627;51.322;22.816;2023-04-29T14:11:23;26.67;;;17.48;;
22922;SDS011;11627;51.322;22.816;2023-04-29T14:13:49;23.15;;;16.27;;
22922;SDS011;11627;51.322;22.816;2023-04-29T14:16:14;29.13;;;18.63;;
22922;SDS011;11627;51.322;22.816;2023-04-29T14:18:41;11.88;;;5.70;;
22922;SDS011;11627;51.322;22.816;2023-04-29T14:21:07;30.45;;;18.90;;
22922;SDS011;11627;51.322;22.816;2023-04-29T14:23:33;45.80;;;26.05;;
22922;SDS011;11627;51.322;22.816;2023-04-29T14:25:58;24.45;;;14.85;;
22922;SDS011;11627;51.322;22.816;2023-04-29T14:28:25;20.73;;;10.68;;
22922;SDS011;11627;51.322;22.816;2023-04-29T14:30:50;10.60;;;6.30;;
22922;SDS011;11627;51.322;22.816;2023-04-29T14:33:16;10.50;;;6.15;;
22922;SDS011;11627;51.322;22.816;2023-04-29T14:35:42;65.10;;;36.75;;
22922;SDS011;11627;51.322;22.816;2023-04-29T14:38:07;19.83;;;10.90;;
22922;SDS011;11627;51.322;22.816;2023-04-29T14:40:33;14.45;;;8.90;;
22922;SDS011;11627;51.322;22.816;2023-04-29T14:42:59;19.13;;;11.35;;
22922;SDS011;11627;51.322;22.816;2023-04-29T14:45:25;12.60;;;7.32;;
22922;SDS011;11627;51.322;22.816;2023-04-29T14:47:52;19.60;;;11.43;;
22922;SDS011;11627;51.322;22.816;2023-04-29T14:50:17;11.80;;;6.53;;
22922;SDS011;11627;51.322;22.816;2023-04-29T14:52:43;8.15;;;3.92;;
22922;SDS011;11627;51.322;22.816;2023-04-29T14:55:09;11.30;;;5.50;;